createdAt,value
2023-05-20T00:00:47.061Z,38.42
2023-05-20T00:01:47.109Z,38.41
2023-05-20T00:02:47.245Z,38.43
2023-05-20T00:03:47.353Z,38.42
2023-05-20T00:04:47.259Z,38.42
2023-05-20T00:05:47.324Z,38.41
2023-05-20T00:06:47.367Z,38.41
2023-05-20T00:07:47.459Z,38.39
2023-05-20T00:08:47.515Z,38.42
2023-05-20T00:09:47.573Z,38.43
2023-05-20T00:10:47.619Z,38.43
2023-05-20T00:11:47.685Z,38.39
2023-05-20T00:12:47.720Z,38.42
2023-05-20T00:13:47.778Z,38.44
2023-05-20T00:14:47.893Z,38.41
2023-05-20T00:15:47.871Z,38.40
2023-05-20T00:16:47.930Z,38.42
2023-05-20T00:17:48.042Z,38.41
2023-05-20T00:18:48.066Z,38.42
2023-05-20T00:19:48.114Z,38.41
2023-05-20T00:20:48.142Z,38.40
2023-05-20T00:21:48.255Z,38.42
2023-05-20T00:22:48.580Z,38.39
2023-05-20T00:23:48.354Z,38.42
2023-05-20T00:24:48.383Z,38.39
2023-05-20T00:25:48.462Z,38.41
2023-05-20T00:26:48.507Z,38.40
2023-05-20T00:27:48.594Z,38.41
2023-05-20T00:28:48.654Z,38.40
2023-05-20T00:29:48.697Z,38.41
2023-05-20T00:30:48.693Z,38.40
2023-05-20T00:31:48.815Z,38.41
2023-05-20T00:32:48.842Z,38.41
2023-05-20T00:33:48.846Z,38.38
2023-05-20T00:34:48.930Z,38.41
2023-05-20T00:35:49.001Z,38.40
2023-05-20T00:36:49.046Z,38.42
2023-05-20T00:37:49.101Z,38.41
2023-05-20T00:38:49.130Z,38.41
2023-05-20T00:39:49.196Z,38.42
2023-05-20T00:40:49.246Z,38.38
2023-05-20T00:41:49.348Z,38.40
2023-05-20T00:42:49.414Z,38.41
2023-05-20T00:43:49.436Z,38.41
2023-05-20T00:44:49.510Z,38.39
2023-05-20T00:45:49.602Z,38.40
2023-05-20T00:46:49.578Z,38.43
2023-05-20T00:47:50.063Z,38.40
2023-05-20T00:48:49.737Z,38.40
2023-05-20T00:49:50.587Z,38.40
2023-05-20T00:50:49.827Z,38.40
2023-05-20T00:51:49.899Z,38.40
2023-05-20T00:52:49.972Z,38.40
2023-05-20T00:53:50.053Z,38.41
2023-05-20T00:54:50.068Z,38.39
2023-05-20T00:55:50.126Z,38.39
2023-05-20T00:56:50.200Z,38.39
2023-05-20T00:57:50.280Z,38.39
2023-05-20T00:58:50.308Z,38.39
2023-05-20T00:59:50.380Z,38.40
2023-05-20T01:00:50.424Z,38.39
2023-05-20T01:01:50.638Z,38.42
2023-05-20T01:02:50.635Z,38.41
2023-05-20T01:03:50.641Z,38.40
2023-05-20T01:04:50.742Z,38.39
2023-05-20T01:05:50.711Z,38.38
2023-05-20T01:06:50.735Z,38.41
2023-05-20T01:07:50.825Z,38.41
2023-05-20T01:08:50.870Z,38.39
2023-05-20T01:09:50.894Z,38.40
2023-05-20T01:10:50.959Z,38.41
2023-05-20T01:11:51.032Z,38.40
2023-05-20T01:12:51.125Z,38.40
2023-05-20T01:13:51.176Z,38.40
2023-05-20T01:14:51.265Z,38.40
2023-05-20T01:15:51.308Z,38.40
2023-05-20T01:16:51.333Z,38.40
2023-05-20T01:17:51.499Z,38.40
2023-05-20T01:18:51.495Z,38.39
2023-05-20T01:19:51.497Z,38.39
2023-05-20T01:20:51.556Z,38.39
2023-05-20T01:21:51.634Z,38.38
2023-05-20T01:22:51.684Z,38.39
2023-05-20T01:23:51.732Z,38.41
2023-05-20T01:24:51.793Z,38.41
2023-05-20T01:25:51.824Z,38.40
2023-05-20T01:26:51.883Z,38.38
2023-05-20T01:27:51.938Z,38.38
2023-05-20T01:28:52.015Z,38.40
2023-05-20T01:29:52.072Z,38.41
2023-05-20T01:30:52.103Z,38.41
2023-05-20T01:31:52.250Z,38.39
2023-05-20T01:32:52.320Z,38.40
2023-05-20T01:33:52.263Z,38.40
2023-05-20T01:34:52.300Z,38.41
2023-05-20T01:35:52.391Z,38.39
2023-05-20T01:36:52.407Z,38.39
2023-05-20T01:37:52.478Z,38.39
2023-05-20T01:38:52.528Z,38.38
2023-05-20T01:39:52.595Z,38.40
2023-05-20T01:40:52.659Z,38.39
2023-05-20T01:41:52.762Z,38.41
2023-05-20T01:42:53.068Z,38.39
2023-05-20T01:43:52.867Z,38.40
2023-05-20T01:44:52.875Z,38.38
2023-05-20T01:45:52.992Z,38.38
2023-05-20T01:46:53.041Z,38.40
2023-05-20T01:47:53.124Z,38.40
2023-05-20T01:48:53.087Z,38.38
2023-05-20T01:49:53.148Z,38.37
2023-05-20T01:50:53.228Z,38.39
2023-05-20T01:51:53.266Z,38.39
2023-05-20T01:52:53.340Z,38.42
2023-05-20T01:53:53.400Z,38.40
2023-05-20T01:54:53.455Z,38.40
2023-05-20T01:55:53.595Z,38.41
2023-05-20T01:56:53.580Z,38.39
2023-05-20T01:57:53.680Z,38.40
2023-05-20T01:58:53.635Z,38.39
2023-05-20T01:59:53.720Z,38.40
2023-05-20T02:00:53.837Z,38.39
2023-05-20T02:01:53.880Z,38.38
2023-05-20T02:02:53.905Z,38.38
2023-05-20T02:03:53.943Z,38.41
2023-05-20T02:04:53.988Z,38.40
2023-05-20T02:05:54.092Z,38.38
2023-05-20T02:06:54.083Z,38.40
2023-05-20T02:07:54.082Z,38.39
2023-05-20T02:08:54.135Z,38.39
2023-05-20T02:09:54.252Z,38.37
2023-05-20T02:10:54.215Z,38.39
2023-05-20T02:11:54.246Z,38.39
2023-05-20T02:12:54.277Z,38.37
2023-05-20T02:13:54.370Z,38.39
2023-05-20T02:14:55.082Z,38.38
2023-05-20T02:15:54.459Z,38.38
2023-05-20T02:16:54.580Z,38.38
2023-05-20T02:17:54.610Z,38.38
2023-05-20T02:18:54.620Z,38.39
2023-05-20T02:19:54.644Z,38.37
2023-05-20T02:20:54.684Z,38.37
2023-05-20T02:21:54.697Z,38.37
2023-05-20T02:22:54.768Z,38.39
2023-05-20T02:23:54.779Z,38.38
2023-05-20T02:24:54.839Z,38.38
2023-05-20T02:25:54.890Z,38.36
2023-05-20T02:26:54.941Z,38.37
2023-05-20T02:27:55.113Z,38.39
2023-05-20T02:28:55.004Z,38.38
2023-05-20T02:29:55.068Z,38.37
2023-05-20T02:30:55.087Z,38.39
2023-05-20T02:31:55.145Z,38.38
2023-05-20T02:32:55.257Z,38.39
2023-05-20T02:33:55.263Z,38.39
2023-05-20T02:34:55.258Z,38.37
2023-05-20T02:35:55.265Z,38.37
2023-05-20T02:36:55.316Z,38.36
2023-05-20T02:37:55.412Z,38.36
2023-05-20T02:38:55.402Z,38.37
2023-05-20T02:39:55.439Z,38.37
2023-05-20T02:40:55.477Z,38.36
2023-05-20T02:41:55.491Z,38.38
2023-05-20T02:42:55.612Z,38.38
2023-05-20T02:43:55.560Z,38.37
2023-05-20T02:44:55.622Z,38.37
2023-05-20T02:45:55.713Z,38.37
2023-05-20T02:46:55.670Z,38.37
2023-05-20T02:47:55.762Z,38.37
2023-05-20T02:48:55.732Z,38.38
2023-05-20T02:49:55.817Z,38.40
2023-05-20T02:50:55.842Z,38.38
2023-05-20T02:51:55.883Z,38.38
2023-05-20T02:52:55.944Z,38.37
2023-05-20T02:53:55.984Z,38.38
2023-05-20T02:54:55.976Z,38.35
2023-05-20T02:55:56.038Z,38.38
2023-05-20T02:56:56.064Z,38.35
2023-05-20T02:57:56.102Z,38.37
2023-05-20T02:58:56.161Z,38.37
2023-05-20T02:59:56.180Z,38.38
2023-05-20T03:00:56.189Z,38.38
2023-05-20T03:01:56.305Z,38.38
2023-05-20T03:02:56.251Z,38.37
2023-05-20T03:03:56.267Z,38.38
2023-05-20T03:04:56.256Z,38.37
2023-05-20T03:05:56.290Z,38.36
2023-05-20T03:06:56.309Z,38.37
2023-05-20T03:07:56.337Z,38.36
2023-05-20T03:08:56.320Z,38.39
2023-05-20T03:09:56.357Z,38.33
2023-05-20T03:10:56.362Z,38.36
2023-05-20T03:11:56.377Z,38.36
2023-05-20T03:12:56.396Z,38.37
2023-05-20T03:13:56.443Z,38.37
2023-05-20T03:14:56.411Z,38.36
2023-05-20T03:15:56.465Z,38.38
2023-05-20T03:16:56.462Z,38.39
2023-05-20T03:17:56.546Z,38.38
2023-05-20T03:18:56.615Z,38.38
2023-05-20T03:19:56.543Z,38.38
2023-05-20T03:20:56.561Z,38.38
2023-05-20T03:21:56.562Z,38.38
2023-05-20T03:22:56.646Z,38.37
2023-05-20T03:23:56.608Z,38.39
2023-05-20T03:24:56.664Z,38.37
2023-05-20T03:25:56.626Z,38.37
2023-05-20T03:26:56.641Z,38.38
2023-05-20T03:27:56.624Z,38.37
2023-05-20T03:28:56.642Z,38.36
2023-05-20T03:29:56.691Z,38.35
2023-05-20T03:30:56.741Z,38.37
2023-05-20T03:31:56.703Z,38.36
2023-05-20T03:32:56.772Z,38.36
2023-05-20T03:33:56.713Z,38.36
2023-05-20T03:34:56.753Z,38.36
2023-05-20T03:35:56.785Z,38.39
2023-05-20T03:36:56.784Z,38.36
2023-05-20T03:37:56.849Z,38.35
2023-05-20T03:38:56.855Z,38.38
2023-05-20T03:39:56.877Z,38.39
2023-05-20T03:40:56.865Z,38.36
2023-05-20T03:41:56.871Z,38.35
2023-05-20T03:42:56.905Z,38.35
2023-05-20T03:43:56.895Z,38.37
2023-05-20T03:44:56.897Z,38.37
2023-05-20T03:45:56.929Z,38.35
2023-05-20T03:46:57.073Z,38.35
2023-05-20T03:47:56.994Z,38.35
2023-05-20T03:48:56.973Z,38.37
2023-05-20T03:49:57.026Z,38.36
2023-05-20T03:50:57.051Z,38.37
2023-05-20T03:51:57.048Z,38.35
2023-05-20T03:52:57.047Z,38.34
2023-05-20T03:53:57.114Z,38.35
2023-05-20T03:54:57.063Z,38.36
2023-05-20T03:55:57.092Z,38.34
2023-05-20T03:56:57.130Z,38.36
2023-05-20T03:57:57.151Z,38.36
2023-05-20T03:58:57.153Z,38.36
2023-05-20T03:59:57.165Z,38.36
2023-05-20T04:00:57.212Z,38.37
2023-05-20T04:01:57.235Z,38.36
2023-05-20T04:02:57.333Z,38.34
2023-05-20T04:03:57.241Z,38.38
2023-05-20T04:04:57.242Z,38.35
2023-05-20T04:05:57.281Z,38.34
2023-05-20T04:06:57.256Z,38.36
2023-05-20T04:07:57.302Z,38.34
2023-05-20T04:08:57.285Z,38.34
2023-05-20T04:09:57.317Z,38.36
2023-05-20T04:10:57.362Z,38.35
2023-05-20T04:11:57.330Z,38.37
2023-05-20T04:12:57.396Z,38.32
2023-05-20T04:13:57.361Z,38.35
2023-05-20T04:14:57.406Z,38.35
2023-05-20T04:15:57.412Z,38.35
2023-05-20T04:16:57.574Z,38.36
2023-05-20T04:17:57.529Z,38.35
2023-05-20T04:18:57.535Z,38.37
2023-05-20T04:19:57.477Z,38.34
2023-05-20T04:20:57.466Z,38.34
2023-05-20T04:21:57.503Z,38.36
2023-05-20T04:22:57.535Z,38.35
2023-05-20T04:23:57.588Z,38.34
2023-05-20T04:24:57.626Z,38.36
2023-05-20T04:25:57.622Z,38.35
2023-05-20T04:26:57.609Z,38.35
2023-05-20T04:27:57.904Z,38.36
2023-05-20T04:28:57.754Z,38.35
2023-05-20T04:29:57.758Z,38.34
2023-05-20T04:30:57.752Z,38.33
2023-05-20T04:31:57.850Z,38.36
2023-05-20T04:32:57.880Z,38.34
2023-05-20T04:33:57.844Z,38.35
2023-05-20T04:34:57.842Z,38.35
2023-05-20T04:35:57.849Z,38.35
2023-05-20T04:36:57.942Z,38.32
2023-05-20T04:37:57.915Z,38.34
2023-05-20T04:38:57.901Z,38.34
2023-05-20T04:39:57.879Z,38.33
2023-05-20T04:40:57.934Z,38.34
2023-05-20T04:41:57.906Z,38.34
2023-05-20T04:42:57.999Z,38.35
2023-05-20T04:43:58.007Z,38.34
2023-05-20T04:44:57.990Z,38.34
2023-05-20T04:45:58.063Z,38.33
2023-05-20T04:46:58.057Z,38.33
2023-05-20T04:47:58.148Z,38.34
2023-05-20T04:48:58.096Z,38.32
2023-05-20T04:49:58.096Z,38.33
2023-05-20T04:50:58.109Z,38.35
2023-05-20T04:51:58.122Z,38.32
2023-05-20T04:52:58.148Z,38.34
2023-05-20T04:53:58.160Z,38.33
2023-05-20T04:54:58.204Z,38.33
2023-05-20T04:55:58.188Z,38.32
2023-05-20T04:56:58.197Z,38.32
2023-05-20T04:57:58.217Z,38.33
2023-05-20T04:58:58.214Z,38.32
2023-05-20T04:59:58.187Z,38.32
2023-05-20T05:00:58.186Z,38.32
2023-05-20T05:01:58.207Z,38.31
2023-05-20T05:02:58.360Z,38.34
2023-05-20T05:03:58.278Z,38.31
2023-05-20T05:04:58.450Z,38.28
2023-05-20T05:05:58.316Z,38.31
2023-05-20T05:06:58.341Z,38.33
2023-05-20T05:07:58.402Z,38.34
2023-05-20T05:08:58.390Z,38.31
2023-05-20T05:09:58.388Z,38.34
2023-05-20T05:10:58.437Z,38.28
2023-05-20T05:11:58.451Z,38.30
2023-05-20T05:12:58.482Z,38.28
2023-05-20T05:13:58.493Z,38.30
2023-05-20T05:14:58.506Z,38.30
2023-05-20T05:15:58.606Z,38.30
2023-05-20T05:16:58.560Z,38.29
2023-05-20T05:17:58.646Z,38.30
2023-05-20T05:18:58.582Z,38.27
2023-05-20T05:19:59.172Z,38.28
2023-05-20T05:20:58.665Z,38.29
2023-05-20T05:21:58.648Z,38.30
2023-05-20T05:22:58.681Z,38.27
2023-05-20T05:23:58.696Z,38.27
2023-05-20T05:24:58.668Z,38.29
2023-05-20T05:25:58.646Z,38.29
2023-05-20T05:26:58.699Z,38.29
2023-05-20T05:27:58.718Z,38.29
2023-05-20T05:28:58.730Z,38.29
2023-05-20T05:29:58.719Z,38.27
2023-05-20T05:30:58.736Z,38.29
2023-05-20T05:31:58.773Z,38.29
2023-05-20T05:32:58.886Z,38.30
2023-05-20T05:33:58.834Z,38.27
2023-05-20T05:34:58.841Z,38.28
2023-05-20T05:35:58.854Z,38.26
2023-05-20T05:36:58.929Z,38.25
2023-05-20T05:37:59.208Z,38.29
2023-05-20T05:38:58.988Z,38.28
2023-05-20T05:39:59.044Z,38.26
2023-05-20T05:40:59.112Z,38.26
2023-05-20T05:41:59.083Z,38.29
2023-05-20T05:42:59.124Z,38.27
2023-05-20T05:43:59.177Z,38.24
2023-05-20T05:44:59.178Z,38.25
2023-05-20T05:45:59.239Z,38.23
2023-05-20T05:46:59.250Z,38.26
2023-05-20T05:47:59.251Z,38.25
2023-05-20T05:48:59.254Z,38.26
2023-05-20T05:49:59.263Z,38.22
2023-05-20T05:50:59.303Z,38.25
2023-05-20T05:51:59.367Z,38.24
2023-05-20T05:52:59.332Z,38.26
2023-05-20T05:53:59.341Z,38.25
2023-05-20T05:54:59.414Z,38.24
2023-05-20T05:55:59.447Z,38.26
2023-05-20T05:56:59.487Z,38.25
2023-05-20T05:57:59.584Z,38.26
2023-05-20T05:58:59.594Z,38.26
2023-05-20T05:59:59.616Z,38.26
2023-05-20T06:00:59.685Z,38.25
2023-05-20T06:01:59.797Z,38.27
2023-05-20T06:02:59.805Z,38.25
2023-05-20T06:03:59.834Z,38.24
2023-05-20T06:04:59.824Z,38.25
2023-05-20T06:05:59.905Z,38.22
2023-05-20T06:06:59.840Z,38.26
2023-05-20T06:07:59.859Z,38.27
2023-05-20T06:08:59.914Z,38.26
2023-05-20T06:09:59.911Z,38.26
2023-05-20T06:10:59.921Z,38.24
2023-05-20T06:11:59.945Z,38.24
2023-05-20T06:13:00.023Z,38.24
2023-05-20T06:13:59.986Z,38.23
2023-05-20T06:15:00.028Z,38.24
2023-05-20T06:16:00.097Z,38.24
2023-05-20T06:17:00.249Z,38.25
2023-05-20T06:18:00.252Z,38.25
2023-05-20T06:19:03.193Z,38.22
2023-05-20T06:20:00.163Z,38.24
2023-05-20T06:21:00.703Z,38.23
2023-05-20T06:22:00.136Z,38.23
2023-05-20T06:23:00.130Z,38.24
2023-05-20T06:24:00.156Z,38.22
2023-05-20T06:25:00.098Z,38.21
2023-05-20T06:26:00.187Z,38.24
2023-05-20T06:27:00.098Z,38.23
2023-05-20T06:28:00.191Z,38.23
2023-05-20T06:29:00.196Z,38.24
2023-05-20T06:30:00.047Z,38.24
2023-05-20T06:31:00.073Z,38.22
2023-05-20T06:32:00.052Z,38.22
2023-05-20T06:33:00.115Z,38.23
2023-05-20T06:34:00.018Z,38.23
2023-05-20T06:34:59.995Z,38.21
2023-05-20T06:36:00.002Z,38.22
2023-05-20T06:36:59.988Z,38.24
2023-05-20T06:38:00.228Z,38.21
2023-05-20T06:38:59.992Z,38.22
2023-05-20T06:39:59.981Z,38.19
2023-05-20T06:40:59.941Z,38.22
2023-05-20T06:41:59.967Z,38.21
2023-05-20T06:42:59.991Z,38.20
2023-05-20T06:43:59.960Z,38.19
2023-05-20T06:44:59.937Z,38.18
2023-05-20T06:45:59.950Z,38.18
2023-05-20T06:46:59.906Z,38.19
2023-05-20T06:47:59.993Z,38.19
2023-05-20T06:48:59.916Z,38.19
2023-05-20T06:49:59.917Z,38.18
2023-05-20T06:50:59.897Z,38.18
2023-05-20T06:51:59.890Z,38.16
2023-05-20T06:52:59.865Z,38.16
2023-05-20T06:53:59.927Z,38.12
2023-05-20T06:54:59.869Z,38.12
2023-05-20T06:55:59.857Z,38.10
2023-05-20T06:56:59.879Z,38.13
2023-05-20T06:57:59.836Z,38.12
2023-05-20T06:59:00.202Z,38.10
2023-05-20T06:59:59.808Z,38.12
2023-05-20T07:00:59.856Z,38.11
2023-05-20T07:01:59.930Z,38.10
2023-05-20T07:02:59.870Z,38.09
2023-05-20T07:03:59.849Z,38.10
2023-05-20T07:04:59.795Z,38.10
2023-05-20T07:05:59.858Z,38.09
2023-05-20T07:06:59.891Z,38.09
2023-05-20T07:07:59.993Z,38.10
2023-05-20T07:09:00.002Z,38.08
2023-05-20T07:10:00.045Z,38.09
2023-05-20T07:11:00.136Z,38.11
2023-05-20T07:12:00.146Z,38.08
2023-05-20T07:13:00.258Z,38.10
2023-05-20T07:14:00.284Z,38.09
2023-05-20T07:15:00.303Z,38.07
2023-05-20T07:16:00.384Z,38.09
2023-05-20T07:17:00.387Z,38.09
2023-05-20T07:18:00.483Z,38.08
2023-05-20T07:19:00.514Z,38.10
2023-05-20T07:20:00.554Z,38.09
2023-05-20T07:21:00.593Z,38.11
2023-05-20T07:22:00.634Z,38.10
2023-05-20T07:23:00.687Z,38.12
2023-05-20T07:24:00.795Z,38.12
2023-05-20T07:25:00.798Z,38.12
2023-05-20T07:26:00.870Z,38.11
2023-05-20T07:27:00.908Z,38.13
2023-05-20T07:28:00.985Z,38.12
2023-05-20T07:29:01.018Z,38.14
2023-05-20T07:30:01.129Z,38.11
2023-05-20T07:31:01.153Z,38.12
2023-05-20T07:32:01.280Z,38.12
2023-05-20T07:33:01.346Z,38.12
2023-05-20T07:34:01.296Z,38.13
2023-05-20T07:35:01.400Z,38.13
2023-05-20T07:36:01.419Z,38.12
2023-05-20T07:37:01.460Z,38.16
2023-05-20T07:38:01.538Z,38.13
2023-05-20T07:39:04.750Z,38.13
2023-05-20T07:40:01.546Z,38.13
2023-05-20T07:41:01.599Z,38.14
2023-05-20T07:42:01.572Z,38.16
2023-05-20T07:43:01.567Z,38.15
2023-05-20T07:44:01.571Z,38.14
2023-05-20T07:45:01.562Z,38.15
2023-05-20T07:46:01.566Z,38.17
2023-05-20T07:47:01.531Z,38.15
2023-05-20T07:48:01.591Z,38.15
2023-05-20T07:49:01.547Z,38.16
2023-05-20T07:50:01.571Z,38.17
2023-05-20T07:51:01.535Z,38.17
2023-05-20T07:52:03.005Z,38.16
2023-05-20T07:53:01.540Z,38.16
2023-05-20T07:54:01.743Z,38.16
2023-05-20T07:55:01.547Z,38.16
2023-05-20T07:56:01.647Z,38.18
2023-05-20T07:57:01.686Z,38.19
2023-05-20T07:58:01.731Z,38.18
2023-05-20T07:59:02.276Z,38.17
2023-05-20T08:00:01.855Z,38.19
2023-05-20T08:01:01.902Z,38.19
2023-05-20T08:02:01.996Z,38.20
2023-05-20T08:03:02.267Z,38.17
2023-05-20T08:04:02.173Z,38.18
2023-05-20T08:05:02.093Z,38.20
2023-05-20T08:06:02.165Z,38.20
2023-05-20T08:07:02.236Z,38.18
2023-05-20T08:08:02.270Z,38.21
2023-05-20T08:09:02.332Z,38.21
2023-05-20T08:10:02.366Z,38.20
2023-05-20T08:11:02.414Z,38.20
2023-05-20T08:12:02.440Z,38.20
2023-05-20T08:13:02.470Z,38.24
2023-05-20T08:14:02.746Z,38.22
2023-05-20T08:15:02.645Z,38.21
2023-05-20T08:16:03.216Z,38.21
2023-05-20T08:17:02.752Z,38.20
2023-05-20T08:18:02.804Z,38.20
2023-05-20T08:19:02.845Z,38.23
2023-05-20T08:20:02.871Z,38.23
2023-05-20T08:21:02.913Z,38.22
2023-05-20T08:22:03.009Z,38.22
2023-05-20T08:23:03.041Z,38.22
2023-05-20T08:24:03.126Z,38.24
2023-05-20T08:25:03.144Z,38.21
2023-05-20T08:26:03.233Z,38.24
2023-05-20T08:27:03.287Z,38.25
2023-05-20T08:28:03.347Z,38.24
2023-05-20T08:29:03.377Z,38.23
2023-05-20T08:30:03.440Z,38.22
2023-05-20T08:31:03.552Z,38.22
2023-05-20T08:32:03.552Z,38.22
2023-05-20T08:33:03.678Z,38.21
2023-05-20T08:34:03.681Z,38.21
2023-05-20T08:35:03.720Z,38.21
2023-05-20T08:36:03.761Z,38.24
2023-05-20T08:37:03.841Z,38.25
2023-05-20T08:38:03.882Z,38.23
2023-05-20T08:39:04.249Z,38.21
2023-05-20T08:40:03.968Z,38.22
2023-05-20T08:41:04.270Z,38.23
2023-05-20T08:42:04.123Z,38.21
2023-05-20T08:43:04.191Z,38.22
2023-05-20T08:44:04.194Z,38.23
2023-05-20T08:45:04.276Z,38.25
2023-05-20T08:46:04.381Z,38.23
2023-05-20T08:47:04.397Z,38.22
2023-05-20T08:48:04.486Z,38.24
2023-05-20T08:49:04.514Z,38.23
2023-05-20T08:50:04.634Z,38.25
2023-05-20T08:51:04.594Z,38.24
2023-05-20T08:52:04.654Z,38.22
2023-05-20T08:53:04.757Z,38.23
2023-05-20T08:54:04.787Z,38.23
2023-05-20T08:55:04.870Z,38.26
2023-05-20T08:56:04.951Z,38.24
2023-05-20T08:57:04.969Z,38.24
2023-05-20T08:58:05.042Z,38.23
2023-05-20T08:59:05.092Z,38.23
2023-05-20T09:00:05.216Z,38.26
2023-05-20T09:01:05.178Z,38.24
2023-05-20T09:02:05.295Z,38.21
2023-05-20T09:03:05.371Z,38.27
2023-05-20T09:04:05.801Z,38.24
2023-05-20T09:05:05.472Z,38.23
2023-05-20T09:06:05.448Z,38.24
2023-05-20T09:07:05.549Z,38.25
2023-05-20T09:08:05.616Z,38.25
2023-05-20T09:09:05.663Z,38.24
2023-05-20T09:10:05.679Z,38.25
2023-05-20T09:11:05.720Z,38.25
2023-05-20T09:12:05.750Z,38.23
2023-05-20T09:13:05.829Z,38.26
2023-05-20T09:14:05.877Z,38.25
2023-05-20T09:15:05.958Z,38.26
2023-05-20T09:16:06.016Z,38.24
2023-05-20T09:17:06.037Z,38.25
2023-05-20T09:18:06.080Z,38.26
2023-05-20T09:19:06.199Z,38.26
2023-05-20T09:20:06.139Z,38.27
2023-05-20T09:21:06.201Z,38.26
2023-05-20T09:22:06.263Z,38.27
2023-05-20T09:23:06.297Z,38.26
2023-05-20T09:24:06.335Z,38.26
2023-05-20T09:25:06.386Z,38.28
2023-05-20T09:26:06.446Z,38.27
2023-05-20T09:27:06.520Z,38.27
2023-05-20T09:28:06.534Z,38.28
2023-05-20T09:29:06.618Z,38.29
2023-05-20T09:30:06.627Z,38.27
2023-05-20T09:31:06.705Z,38.29
2023-05-20T09:32:06.808Z,38.29
2023-05-20T09:33:06.781Z,38.28
2023-05-20T09:34:06.825Z,38.28
2023-05-20T09:35:06.910Z,38.28
2023-05-20T09:36:06.930Z,38.28
2023-05-20T09:37:06.967Z,38.29
2023-05-20T09:38:07.028Z,38.28
2023-05-20T09:39:07.267Z,38.29
2023-05-20T09:40:07.116Z,38.27
2023-05-20T09:41:07.180Z,38.29
2023-05-20T09:42:07.331Z,38.29
2023-05-20T09:43:07.325Z,38.30
2023-05-20T09:44:07.361Z,38.29
2023-05-20T09:45:07.381Z,38.30
2023-05-20T09:46:07.481Z,38.32
2023-05-20T09:47:08.615Z,38.31
2023-05-20T09:48:07.599Z,38.29
2023-05-20T09:49:07.558Z,38.30
2023-05-20T09:50:07.608Z,38.31
2023-05-20T09:51:07.758Z,38.33
2023-05-20T09:52:07.723Z,38.33
2023-05-20T09:53:07.729Z,38.33
2023-05-20T09:54:07.821Z,38.32
2023-05-20T09:55:07.838Z,38.34
2023-05-20T09:56:07.901Z,38.33
2023-05-20T09:57:07.896Z,38.32
2023-05-20T09:58:07.975Z,38.33
2023-05-20T09:59:08.053Z,38.33
2023-05-20T10:00:08.038Z,38.32
2023-05-20T10:01:08.267Z,38.33
2023-05-20T10:02:08.172Z,38.32
2023-05-20T10:03:08.297Z,38.33
2023-05-20T10:04:08.283Z,38.35
2023-05-20T10:05:08.345Z,38.35
2023-05-20T10:06:08.396Z,38.36
2023-05-20T10:07:08.435Z,38.34
2023-05-20T10:08:08.461Z,38.36
2023-05-20T10:09:08.523Z,38.35
2023-05-20T10:10:08.554Z,38.37
2023-05-20T10:11:08.602Z,38.36
2023-05-20T10:12:08.722Z,38.36
2023-05-20T10:13:08.751Z,38.37
2023-05-20T10:14:08.799Z,38.37
2023-05-20T10:15:08.814Z,38.38
2023-05-20T10:16:08.918Z,38.39
2023-05-20T10:17:08.965Z,38.38
2023-05-20T10:18:09.059Z,38.39
2023-05-20T10:19:09.134Z,38.38
2023-05-20T10:20:09.131Z,38.40
2023-05-20T10:21:09.162Z,38.41
2023-05-20T10:22:09.245Z,38.40
2023-05-20T10:23:09.229Z,38.41
2023-05-20T10:24:09.316Z,38.43
2023-05-20T10:25:09.358Z,38.45
2023-05-20T10:26:09.437Z,38.45
2023-05-20T10:27:09.492Z,38.46
2023-05-20T10:28:09.504Z,38.46
2023-05-20T10:29:11.592Z,38.47
2023-05-20T10:30:09.625Z,38.48
2023-05-20T10:31:09.643Z,38.46
2023-05-20T10:32:09.751Z,38.47
2023-05-20T10:33:09.831Z,38.48
2023-05-20T10:34:09.786Z,38.46
2023-05-20T10:35:09.877Z,38.48
2023-05-20T10:36:09.898Z,38.50
2023-05-20T10:37:09.977Z,38.48
2023-05-20T10:38:10.023Z,38.53
2023-05-20T10:39:10.082Z,38.50
2023-05-20T10:40:10.108Z,38.49
2023-05-20T10:41:10.188Z,38.52
2023-05-20T10:42:10.197Z,38.51
2023-05-20T10:43:10.271Z,38.50
2023-05-20T10:44:10.328Z,38.50
2023-05-20T10:45:10.408Z,38.52
2023-05-20T10:46:21.317Z,38.52
2023-05-20T10:48:10.499Z,38.51
2023-05-20T10:49:10.606Z,38.55
2023-05-20T10:50:10.430Z,38.58
2023-05-20T10:51:10.377Z,38.53
2023-05-20T10:52:10.388Z,38.57
2023-05-20T10:53:15.686Z,38.55
2023-05-20T10:54:11.374Z,38.56
2023-05-20T10:55:10.363Z,38.57
2023-05-20T10:56:10.333Z,38.58
2023-05-20T10:57:10.361Z,38.56
2023-05-20T10:58:10.382Z,38.59
2023-05-20T10:59:10.326Z,38.59
2023-05-20T11:00:10.371Z,38.59
2023-05-20T11:01:10.343Z,38.64
2023-05-20T11:02:10.345Z,38.65
2023-05-20T11:03:10.398Z,38.65
2023-05-20T11:04:10.528Z,38.63
2023-05-20T11:05:10.422Z,38.67
2023-05-20T11:06:10.462Z,38.63
2023-05-20T11:07:10.496Z,38.67
2023-05-20T11:08:24.121Z,38.66
2023-05-20T11:09:11.581Z,38.70
2023-05-20T11:10:10.584Z,38.73
2023-05-20T11:11:10.576Z,38.73
2023-05-20T11:12:10.532Z,38.72
2023-05-20T11:13:10.596Z,38.73
2023-05-20T11:14:10.569Z,38.75
2023-05-20T11:15:10.519Z,38.75
2023-05-20T11:16:10.564Z,38.75
2023-05-20T11:17:10.618Z,38.73
2023-05-20T11:18:10.534Z,38.73
2023-05-20T11:19:10.623Z,38.73
2023-05-20T11:20:10.599Z,38.73
2023-05-20T11:21:10.673Z,38.78
2023-05-20T11:22:10.722Z,38.74
2023-05-20T11:23:10.763Z,38.77
2023-05-20T11:24:10.857Z,38.76
2023-05-20T11:25:10.877Z,38.76
2023-05-20T11:26:10.959Z,38.75
2023-05-20T11:27:11.024Z,38.74
2023-05-20T11:28:11.075Z,38.75
2023-05-20T11:29:11.182Z,38.74
2023-05-20T11:30:11.224Z,38.74
2023-05-20T11:31:11.244Z,38.73
2023-05-20T11:32:11.322Z,38.74
2023-05-20T11:33:11.388Z,38.73
2023-05-20T11:34:11.444Z,38.75
2023-05-20T11:35:11.489Z,38.74
2023-05-20T11:36:26.264Z,38.77
2023-05-20T11:37:12.584Z,38.76
2023-05-20T11:38:11.544Z,38.77
2023-05-20T11:39:11.821Z,38.76
2023-05-20T11:40:11.528Z,38.78
2023-05-20T11:41:11.501Z,38.78
2023-05-20T11:42:11.486Z,38.77
2023-05-20T11:43:11.525Z,38.77
2023-05-20T11:44:11.501Z,38.77
2023-05-20T11:45:11.520Z,38.76
2023-05-20T11:46:11.506Z,38.81
2023-05-20T11:47:11.524Z,38.78
2023-05-20T11:48:11.630Z,38.79
2023-05-20T11:49:11.651Z,38.77
2023-05-20T11:50:11.774Z,38.78
2023-05-20T11:51:11.757Z,38.79
2023-05-20T11:52:11.841Z,38.81
2023-05-20T11:53:11.932Z,38.82
2023-05-20T11:54:11.986Z,38.83
2023-05-20T11:55:12.017Z,38.87
2023-05-20T11:56:12.846Z,38.85
2023-05-20T11:57:12.155Z,38.83
2023-05-20T11:58:12.172Z,38.84
2023-05-20T11:59:12.245Z,38.85
2023-05-20T12:00:12.336Z,38.89
2023-05-20T12:01:21.632Z,38.87
2023-05-20T12:02:15.402Z,38.84
2023-05-20T12:03:12.435Z,38.86
2023-05-20T12:04:13.053Z,38.87
2023-05-20T12:05:12.338Z,38.88
2023-05-20T12:06:12.377Z,38.87
2023-05-20T12:07:12.352Z,38.88
2023-05-20T12:08:12.363Z,38.87
2023-05-20T12:09:12.344Z,38.93
2023-05-20T12:10:12.368Z,39.00
2023-05-20T12:11:12.336Z,38.92
2023-05-20T12:12:12.332Z,38.92
2023-05-20T12:13:12.297Z,38.94
2023-05-20T12:14:12.332Z,38.96
2023-05-20T12:15:12.295Z,38.98
2023-05-20T12:16:12.337Z,38.98
2023-05-20T12:17:12.285Z,38.99
2023-05-20T12:18:12.270Z,38.97
2023-05-20T12:19:12.349Z,38.98
2023-05-20T12:20:12.274Z,39.01
2023-05-20T12:21:12.276Z,39.04
2023-05-20T12:22:12.244Z,39.02
2023-05-20T12:23:12.286Z,39.10
2023-05-20T12:24:12.270Z,39.10
2023-05-20T12:25:12.216Z,39.09
2023-05-20T12:26:12.249Z,39.05
2023-05-20T12:27:12.211Z,39.07
2023-05-20T12:28:12.207Z,39.06
2023-05-20T12:29:12.241Z,39.09
2023-05-20T12:30:12.189Z,39.08
2023-05-20T12:31:12.257Z,39.06
2023-05-20T12:32:12.392Z,39.06
2023-05-20T12:33:12.321Z,39.04
2023-05-20T12:34:12.387Z,39.02
2023-05-20T12:35:12.460Z,39.00
2023-05-20T12:36:12.546Z,39.05
2023-05-20T12:37:12.548Z,39.06
2023-05-20T12:38:12.620Z,39.07
2023-05-20T12:39:12.696Z,39.06
2023-05-20T12:40:12.795Z,39.09
2023-05-20T12:41:12.803Z,39.07
2023-05-20T12:42:12.924Z,39.12
2023-05-20T12:43:12.945Z,39.13
2023-05-20T12:44:13.005Z,39.09
2023-05-20T12:45:13.048Z,39.14
2023-05-20T12:46:13.088Z,39.14
2023-05-20T12:47:13.245Z,39.14
2023-05-20T12:48:13.358Z,39.14
2023-05-20T12:49:13.302Z,39.13
2023-05-20T12:50:13.385Z,39.16
2023-05-20T12:51:13.431Z,39.16
2023-05-20T12:52:22.489Z,39.14
2023-05-20T12:53:14.460Z,39.16
2023-05-20T12:54:13.483Z,39.15